Airfield :
LOGIN :

Register | Disclaimer

   EN    FR    IT 

 










Legend :    VFR   Marginal VFR   IFR   Intensive IFR   Very Intensive IFR
Visi :
Ceiling :
>= 8 km
>= 3000ft
5 to 8 km
1000 to 3000 ft
1500m to 5 km
500 to 1000 ft
800 to 1500m
200 to 500 ft
< 800m
< 200 ft
Symbols :   Thunderstorms  Fog  Heavy snow  Heavy precipitations  Wind > 20 kt
SIGMETs :     Misc.  Thunderstorms  Icing  Turbulence  Mountain Waves  Volcanic Ashes






- Airport Elevation : 140 ft
- IATA code : NYO


ESKN - Skavsta

CURRENT METAR :
  • 031920Z 12015KT 6000 -RA BKN008 BKN016 02/01 Q1007 R08/29//95

EXPIRED METARs :
  • 031850Z 13017KT 100V160 7000 -RA SCT010 BKN019 02/01 Q1007 R26/29//95
  • 031820Z 13017KT 7000 -RA SCT010 BKN024 03/01 Q1007 R26/29//95
  • 031750Z 14015G25KT 9999 -RA SCT020 BKN026 03/00 Q1007 R26/29//95
  • 031720Z 13016KT 9999 SCT023 BKN037 04/M00 Q1007 R26/19//95
  • 031650Z 13015KT 9999 SCT021 BKN036 04/M00 Q1007 R26/19//95

TAF AMD TAF ESKN
Valid from the 03 at 18:00 until the 04 at 18:00 UTC


031753Z 0318/0418 16010KT 9999 SCT007 BKN025
TEMPO 0318/0404 14015G25KT 3000 RA BKN007
PROB40 0404/0411 SHRA BKN009TCU
PROB40 0411/0418 4000 RA BKN006



MET'MAP, your aeronautical weather chart ! - Copyright ORBIFLY December 2007 - Disclaimer

ORBIFLY MET'MAP TEAM :

Programming & Development : Alexandra Zaïnal
Concept & original design : Baudouin d'Aumeries
Assistance for programming : Marc-Olivier Méhu
Technical & hardware support : Manuel Goepfert

Contact : metmap@orbifly.com




SOURCES & CREDITS :

   NOAA